createdAt,value
2023-09-17T00:01:55.464Z,60.99
2023-09-17T00:06:57.457Z,63.15
2023-09-17T00:11:59.561Z,63.24
2023-09-17T00:17:01.491Z,61.17
2023-09-17T00:22:04.383Z,62.27
2023-09-17T00:27:06.554Z,64.24
2023-09-17T00:32:08.635Z,62.38
2023-09-17T00:37:13.041Z,61.59
2023-09-17T00:42:17.284Z,62.44
2023-09-17T00:47:19.102Z,64.36
2023-09-17T00:52:22.278Z,64.58
2023-09-17T00:57:24.391Z,63.91
2023-09-17T01:02:27.924Z,62.16
2023-09-17T01:07:30.043Z,61.79
2023-09-17T01:12:32.874Z,62.49
2023-09-17T01:17:35.865Z,63.52
2023-09-17T01:22:45.483Z,62.41
2023-09-17T01:27:47.484Z,62.08
2023-09-17T01:32:49.358Z,64.08
2023-09-17T01:37:56.211Z,63.66
2023-09-17T01:42:59.198Z,63.22
2023-09-17T01:48:02.356Z,62.23
2023-09-17T01:53:05.103Z,64.02
2023-09-17T01:58:07.057Z,61.83
2023-09-17T02:03:09.855Z,61.87
2023-09-17T02:08:11.684Z,63.45
2023-09-17T02:13:13.523Z,61.96
2023-09-17T02:18:15.611Z,61.68
2023-09-17T02:23:18.410Z,62.73
2023-09-17T02:28:20.311Z,61.05
2023-09-17T02:33:22.257Z,60.66
2023-09-17T02:38:24.075Z,63.21
2023-09-17T02:43:26.237Z,63.86
2023-09-17T02:48:28.068Z,62.15
2023-09-17T02:53:29.909Z,62.37
2023-09-17T02:58:31.709Z,66.14
2023-09-17T03:03:33.526Z,63.60
2023-09-17T03:08:35.531Z,62.16
2023-09-17T03:13:37.665Z,64.13
2023-09-17T03:18:40.083Z,63.50
2023-09-17T03:23:41.814Z,61.31
2023-09-17T03:28:43.604Z,63.31
2023-09-17T03:33:45.540Z,64.11
2023-09-17T03:38:47.421Z,62.65
2023-09-17T03:43:49.591Z,63.60
2023-09-17T03:48:51.649Z,67.67
2023-09-17T03:53:53.730Z,65.11
2023-09-17T03:58:56.064Z,64.02
2023-09-17T04:03:58.026Z,65.96
2023-09-17T04:09:00.498Z,63.90
2023-09-17T04:14:02.299Z,63.41
2023-09-17T04:19:04.348Z,64.08
2023-09-17T04:24:06.557Z,63.79
2023-09-17T04:29:11.719Z,62.07
2023-09-17T04:34:16.809Z,64.17
2023-09-17T04:39:18.580Z,65.42
2023-09-17T04:44:20.331Z,64.05
2023-09-17T04:49:22.102Z,63.71
2023-09-17T04:54:25.058Z,66.67
2023-09-17T04:59:29.008Z,66.75
2023-09-17T05:04:30.834Z,67.85
2023-09-17T05:09:32.653Z,66.99
2023-09-17T05:14:34.385Z,67.16
2023-09-17T05:19:36.722Z,63.84
2023-09-17T05:24:39.102Z,64.69
2023-09-17T05:29:42.146Z,65.64
2023-09-17T05:34:45.570Z,67.08
2023-09-17T05:39:47.393Z,65.17
2023-09-17T05:44:49.259Z,65.34
2023-09-17T05:49:51.148Z,64.60
2023-09-17T05:54:53.104Z,63.83
2023-09-17T05:59:54.899Z,65.81
2023-09-17T06:04:59.033Z,66.90
2023-09-17T06:10:02.523Z,66.06
2023-09-17T06:15:05.655Z,64.63
2023-09-17T06:20:08.165Z,67.17
2023-09-17T06:25:10.020Z,66.50
2023-09-17T06:30:12.592Z,64.94
2023-09-17T06:35:14.821Z,64.46
2023-09-17T06:40:17.054Z,66.22
2023-09-17T06:45:19.455Z,65.96
2023-09-17T06:50:21.276Z,65.10
2023-09-17T06:55:23.113Z,64.61
2023-09-17T07:00:24.935Z,64.88
2023-09-17T07:05:26.885Z,63.82
2023-09-17T07:10:28.823Z,65.80
2023-09-17T07:15:31.568Z,65.81
2023-09-17T07:20:33.392Z,64.25
2023-09-17T07:25:35.256Z,64.25
2023-09-17T07:30:38.176Z,67.38
2023-09-17T07:35:40.762Z,67.52
2023-09-17T07:40:42.680Z,66.71
2023-09-17T07:45:44.509Z,67.16
2023-09-17T07:50:55.391Z,67.28
2023-09-17T07:55:57.890Z,65.41
2023-09-17T08:00:59.762Z,65.22
2023-09-17T08:06:01.611Z,66.10
2023-09-17T08:11:04.911Z,64.17
2023-09-17T08:16:06.820Z,65.02
2023-09-17T08:21:08.603Z,64.51
2023-09-17T08:26:12.143Z,64.12
2023-09-17T08:31:13.903Z,62.74
2023-09-17T08:36:16.293Z,62.89
2023-09-17T08:41:24.182Z,61.33
2023-09-17T08:46:27.903Z,61.46
2023-09-17T08:51:34.453Z,61.93
2023-09-17T08:56:40.156Z,60.15
2023-09-17T09:01:45.888Z,60.81
2023-09-17T09:06:48.944Z,61.52
2023-09-17T09:11:51.078Z,60.38
2023-09-17T09:16:53.570Z,58.65
2023-09-17T09:21:55.517Z,61.57
2023-09-17T09:26:59.808Z,59.84
2023-09-17T09:32:01.924Z,60.86
2023-09-17T09:37:11.206Z,57.80
2023-09-17T09:42:14.530Z,57.41
2023-09-17T09:47:16.454Z,58.26
2023-09-17T09:52:19.394Z,59.10
2023-09-17T09:57:21.628Z,58.62
2023-09-17T10:02:23.573Z,56.14
2023-09-17T10:07:26.711Z,56.28
2023-09-17T10:12:28.847Z,55.83
2023-09-17T10:17:31.642Z,60.32
2023-09-17T10:22:36.657Z,55.70
2023-09-17T10:27:39.206Z,56.58
2023-09-17T10:32:42.948Z,54.14
2023-09-17T10:37:47.512Z,56.06
2023-09-17T10:42:52.343Z,52.54
2023-09-17T10:47:59.111Z,54.72
2023-09-17T10:53:01.014Z,55.39
2023-09-17T10:58:39.573Z,53.51
2023-09-17T11:03:46.249Z,53.74
2023-09-17T11:08:48.546Z,53.01
2023-09-17T11:13:52.468Z,56.91
2023-09-17T11:19:09.828Z,53.86
2023-09-17T11:24:13.844Z,52.35
2023-09-17T11:29:18.741Z,53.19
2023-09-17T11:34:22.285Z,50.75
2023-09-17T11:39:25.438Z,51.26
2023-09-17T11:44:27.942Z,50.86
2023-09-17T11:49:30.447Z,50.76
2023-09-17T11:54:35.486Z,51.08
2023-09-17T11:59:41.186Z,51.76
2023-09-17T12:04:45.396Z,51.67
2023-09-17T12:09:48.941Z,49.97
2023-09-17T12:14:51.555Z,49.72
2023-09-17T12:20:02.256Z,49.39
2023-09-17T12:25:09.803Z,49.47
2023-09-17T12:30:12.692Z,49.80
2023-09-17T12:35:15.004Z,51.30
2023-09-17T12:40:17.082Z,50.41
2023-09-17T12:45:20.818Z,48.79
2023-09-17T12:50:23.282Z,49.55
2023-09-17T12:55:28.196Z,48.91
2023-09-17T13:00:30.813Z,49.48
2023-09-17T13:05:32.730Z,49.95
2023-09-17T13:10:35.769Z,48.96
2023-09-17T13:15:37.726Z,50.27
2023-09-17T13:20:39.953Z,48.29
2023-09-17T13:25:42.685Z,47.10
2023-09-17T13:30:45.039Z,46.63
2023-09-17T13:35:52.567Z,49.09
2023-09-17T13:40:55.563Z,48.28
2023-09-17T13:46:01.067Z,47.20
2023-09-17T13:51:03.171Z,46.17
2023-09-17T13:56:06.026Z,47.31
2023-09-17T14:01:09.062Z,48.48
2023-09-17T14:06:11.596Z,47.55
2023-09-17T14:11:13.977Z,47.55
2023-09-17T14:16:16.516Z,48.44
2023-09-17T14:21:18.805Z,46.83
2023-09-17T14:26:22.193Z,46.70
2023-09-17T14:31:24.649Z,46.79
2023-09-17T14:36:26.964Z,47.50
2023-09-17T14:41:31.281Z,46.04
2023-09-17T14:46:35.844Z,47.49
2023-09-17T14:51:38.178Z,47.76
2023-09-17T14:56:40.197Z,49.08
2023-09-17T15:01:59.074Z,48.26
2023-09-17T15:07:03.200Z,50.25
2023-09-17T15:12:05.647Z,50.31
2023-09-17T15:17:07.867Z,49.43
2023-09-17T15:22:10.211Z,49.99
2023-09-17T15:27:13.246Z,50.12
2023-09-17T15:32:15.554Z,50.87
2023-09-17T15:37:18.037Z,50.70
2023-09-17T15:42:20.885Z,51.22
2023-09-17T15:47:23.508Z,52.22
2023-09-17T15:52:25.660Z,51.91
2023-09-17T15:57:28.419Z,53.20
2023-09-17T16:02:31.956Z,51.95
2023-09-17T16:07:35.851Z,52.33
2023-09-17T16:12:38.346Z,52.48
2023-09-17T16:17:42.690Z,52.75
2023-09-17T16:22:45.271Z,53.29
2023-09-17T16:27:49.073Z,54.77
2023-09-17T16:32:53.121Z,55.76
2023-09-17T16:37:55.463Z,56.18
2023-09-17T16:43:08.444Z,56.08
2023-09-17T16:48:12.612Z,58.02
2023-09-17T16:53:15.173Z,58.72
2023-09-17T16:58:20.298Z,58.48
2023-09-17T17:03:22.893Z,59.74
2023-09-17T17:08:27.037Z,60.61
2023-09-17T17:13:30.748Z,61.51
2023-09-17T17:18:33.251Z,61.15
2023-09-17T17:23:35.809Z,61.87
2023-09-17T17:28:38.028Z,62.30
2023-09-17T17:33:41.179Z,61.82
2023-09-17T17:38:44.280Z,60.53
2023-09-17T17:43:46.728Z,62.80
2023-09-17T17:48:50.816Z,64.10
2023-09-17T17:53:53.467Z,63.58
2023-09-17T17:58:56.325Z,62.65
2023-09-17T18:03:58.714Z,63.93
2023-09-17T18:09:01.898Z,63.93
2023-09-17T18:14:04.733Z,62.21
2023-09-17T18:19:07.573Z,62.00
2023-09-17T18:24:11.692Z,63.97
2023-09-17T18:29:14.673Z,64.58
2023-09-17T18:34:17.357Z,62.84
2023-09-17T18:39:20.647Z,63.76
2023-09-17T18:44:25.047Z,62.20
2023-09-17T18:49:28.307Z,62.21
2023-09-17T18:54:32.732Z,64.07
2023-09-17T18:59:38.483Z,64.76
2023-09-17T19:04:41.400Z,63.22
2023-09-17T19:09:44.779Z,63.54
2023-09-17T19:14:48.347Z,65.38
2023-09-17T19:19:51.170Z,64.23
2023-09-17T19:24:56.394Z,63.80
2023-09-17T19:29:59.361Z,65.55
2023-09-17T19:35:02.181Z,65.57
2023-09-17T19:40:05.383Z,64.70
2023-09-17T19:45:11.422Z,65.02
2023-09-17T19:50:15.636Z,66.79
2023-09-17T19:55:18.782Z,67.16
2023-09-17T20:00:21.780Z,65.02
2023-09-17T20:05:25.311Z,65.52
2023-09-17T20:10:29.345Z,65.98
2023-09-17T20:15:31.902Z,64.43
2023-09-17T20:20:34.149Z,65.96
2023-09-17T20:25:37.839Z,66.92
2023-09-17T20:30:40.661Z,65.29
2023-09-17T20:35:43.075Z,65.48
2023-09-17T20:40:45.140Z,66.30
2023-09-17T20:45:47.501Z,66.99
2023-09-17T20:50:49.838Z,65.28
2023-09-17T20:55:54.807Z,66.25
2023-09-17T21:00:56.771Z,67.87
2023-09-17T21:05:58.604Z,67.25
2023-09-17T21:11:00.468Z,65.24
2023-09-17T21:16:02.282Z,66.20
2023-09-17T21:21:04.321Z,66.87
2023-09-17T21:26:12.301Z,66.13
2023-09-17T21:31:14.252Z,66.02
2023-09-17T21:36:16.053Z,66.53
2023-09-17T21:41:18.187Z,65.35
2023-09-17T21:46:20.066Z,65.46
2023-09-17T21:51:21.884Z,66.28
2023-09-17T21:56:23.708Z,66.50
2023-09-17T22:01:26.424Z,66.73
2023-09-17T22:06:28.250Z,67.15
2023-09-17T22:11:30.183Z,68.18
2023-09-17T22:16:36.661Z,66.29
2023-09-17T22:21:38.540Z,65.84
2023-09-17T22:26:40.348Z,67.05
2023-09-17T22:31:42.095Z,66.31
2023-09-17T22:36:44.285Z,65.10
2023-09-17T22:41:46.029Z,65.41
2023-09-17T22:46:47.756Z,67.19
2023-09-17T22:51:49.543Z,67.78
2023-09-17T22:56:52.602Z,67.68
2023-09-17T23:01:54.598Z,67.71
2023-09-17T23:06:56.399Z,67.00
2023-09-17T23:11:58.103Z,66.60
2023-09-17T23:16:59.916Z,66.58
2023-09-17T23:22:01.792Z,66.90
2023-09-17T23:27:03.959Z,65.08
2023-09-17T23:32:06.235Z,65.68
2023-09-17T23:37:08.371Z,67.57
2023-09-17T23:42:11.871Z,67.93
2023-09-17T23:47:13.751Z,65.06
2023-09-17T23:52:15.643Z,66.40
2023-09-17T23:57:17.684Z,66.86
